Time;durP1;ratioP1;P1;durP2;ratioP2;P2;SDS_P1;SDS_P2;PMS_P1;PMS_P2;Temp;Humidity;BMP_temperature;BMP_pressure;BME280_temperature;BME280_humidity;BME280_pressure;Samples;Min_cycle;Max_cycle;Signal;HPM_P1;HPM_P2
2021/06/03 00:01:51;;;;;;;;;;;20.30;53.50;;;;;;5074636;28;19962;-86
2021/06/03 00:17:13;;;;;;;;;;;20.10;53.20;;;;;;3389885;26;19966;-81
2021/06/03 00:19:39;;;;;;;;;;;20.10;53.00;;;;;;5086098;28;19913;-81
2021/06/03 00:22:04;;;;;;;;;;;20.10;52.80;;;;;;5081584;28;19916;-81
2021/06/03 00:24:30;;;;;;;;;;;20.10;52.70;;;;;;5084752;28;19912;-81
2021/06/03 00:26:55;;;;;;;;;;;20.10;52.50;;;;;;5074255;28;19913;-80
2021/06/03 00:29:21;;;;;;;;;;;20.10;52.30;;;;;;5085870;28;19960;-81
2021/06/03 00:31:46;;;;;;;;;;;20.10;52.30;;;;;;5088848;28;19913;-80
2021/06/03 00:34:12;;;;;;;;;;;20.00;52.10;;;;;;5087846;28;19917;-81
2021/06/03 00:36:37;;;;;;;;;;;20.00;52.10;;;;;;5087094;28;19912;-81
2021/06/03 00:39:03;;;;;;;;;;;20.00;52.10;;;;;;5087688;28;19916;-80
2021/06/03 00:41:29;;;;;;;;;;;20.00;52.10;;;;;;5087582;28;19917;-80
2021/06/03 00:43:55;;;;;;;;;;;20.00;52.00;;;;;;5086884;28;20391;-80
2021/06/03 00:46:20;;;;;;;;;;;20.00;52.10;;;;;;5087202;28;19916;-80
2021/06/03 00:48:46;;;;;;;;;;;20.00;52.20;;;;;;5087117;28;20002;-80
2021/06/03 00:51:11;;;;;;;;;;;20.00;52.30;;;;;;5085954;28;19916;-81
2021/06/03 00:53:38;;;;;;;;;;;19.90;52.30;;;;;;5085386;28;20498;-81
2021/06/03 00:56:04;;;;;;;;;;;19.90;52.30;;;;;;5067703;28;19970;-81
2021/06/03 00:58:31;;;;;;;;;;;19.90;52.30;;;;;;5083075;28;19952;-80
2021/06/03 01:00:57;;;;;;;;;;;19.80;52.20;;;;;;5086583;28;19918;-80
2021/06/03 01:03:23;;;;;;;;;;;19.80;52.20;;;;;;5087863;28;19912;-80
2021/06/03 01:05:53;;;;;;;;;;;19.80;52.30;;;;;;5087073;28;20324;-80
2021/06/03 01:08:21;;;;;;;;;;;19.80;52.40;;;;;;5083153;28;19913;-80
2021/06/03 01:11:06;;;;;;;;;;;19.80;52.40;;;;;;5083707;28;19917;-80
2021/06/03 01:13:34;;;;;;;;;;;19.70;52.30;;;;;;5085650;28;19913;-80
2021/06/03 01:16:02;;;;;;;;;;;19.70;52.20;;;;;;5085461;28;20007;-80
2021/06/03 01:18:30;;;;;;;;;;;19.70;52.20;;;;;;5084661;28;19916;-81
2021/06/03 01:20:56;;;;;;;;;;;19.70;52.30;;;;;;5085119;28;19958;-80
2021/06/03 01:23:28;;;;;;;;;;;19.70;52.40;;;;;;5084280;28;20327;-80
2021/06/03 01:25:54;;;;;;;;;;;19.60;52.50;;;;;;5078534;28;19916;-80
2021/06/03 01:28:20;;;;;;;;;;;19.60;52.60;;;;;;5071740;28;19913;-80
2021/06/03 01:30:47;;;;;;;;;;;19.60;52.80;;;;;;5082202;28;19942;-81
2021/06/03 01:33:15;;;;;;;;;;;19.60;53.00;;;;;;5084116;28;19917;-79
2021/06/03 01:35:42;;;;;;;;;;;19.60;53.10;;;;;;5085790;28;19931;-80
2021/06/03 01:38:10;;;;;;;;;;;19.50;53.10;;;;;;5084272;28;19909;-80
2021/06/03 01:40:37;;;;;;;;;;;19.50;53.10;;;;;;5088383;28;19971;-80
2021/06/03 01:43:04;;;;;;;;;;;19.50;53.10;;;;;;5086069;28;19919;-81
2021/06/03 01:45:30;;;;;;;;;;;19.50;53.10;;;;;;5084596;28;19912;-81
2021/06/03 01:47:55;;;;;;;;;;;19.50;53.20;;;;;;5084990;28;20011;-82
2021/06/03 01:50:21;;;;;;;;;;;19.40;53.10;;;;;;5087268;28;19922;-80
2021/06/03 01:52:47;;;;;;;;;;;19.40;53.10;;;;;;5085051;28;19924;-80
2021/06/03 01:55:14;;;;;;;;;;;19.50;53.20;;;;;;5087632;28;21140;-81
2021/06/03 01:57:40;;;;;;;;;;;19.40;53.20;;;;;;5085617;28;19913;-80
2021/06/03 02:00:07;;;;;;;;;;;19.40;53.30;;;;;;5086705;28;19909;-81
2021/06/03 02:02:33;;;;;;;;;;;19.40;53.40;;;;;;5088056;28;19916;-81
2021/06/03 02:04:58;;;;;;;;;;;19.30;53.40;;;;;;5085837;28;19912;-81
2021/06/03 02:07:24;;;;;;;;;;;19.30;53.40;;;;;;5086846;28;19912;-80
2021/06/03 02:09:49;;;;;;;;;;;19.30;53.50;;;;;;5087903;28;19951;-80
2021/06/03 02:12:15;;;;;;;;;;;19.20;53.60;;;;;;5089099;28;19955;-81
2021/06/03 02:14:41;;;;;;;;;;;19.20;53.80;;;;;;5087922;28;19916;-81
2021/06/03 02:17:16;;;;;;;;;;;19.20;54.00;;;;;;5084122;28;20003;-80
2021/06/03 02:19:45;;;;;;;;;;;19.20;54.10;;;;;;5085258;28;19921;-80
2021/06/03 02:22:10;;;;;;;;;;;19.20;54.20;;;;;;5083758;28;20288;-80
2021/06/03 02:24:36;;;;;;;;;;;19.20;54.20;;;;;;5085908;28;19935;-80
2021/06/03 02:27:02;;;;;;;;;;;19.10;54.20;;;;;;5076921;28;19935;-81
2021/06/03 02:29:28;;;;;;;;;;;19.10;54.20;;;;;;5085285;28;19951;-80
2021/06/03 02:31:54;;;;;;;;;;;19.10;54.20;;;;;;5083477;28;19923;-81
2021/06/03 02:34:19;;;;;;;;;;;19.10;54.20;;;;;;5083834;28;19944;-80
2021/06/03 02:36:45;;;;;;;;;;;19.10;54.20;;;;;;5085006;28;19913;-80
2021/06/03 02:39:10;;;;;;;;;;;19.10;54.20;;;;;;5085828;28;19924;-80
2021/06/03 02:41:36;;;;;;;;;;;19.10;54.20;;;;;;5085485;28;19913;-80
2021/06/03 02:44:02;;;;;;;;;;;19.10;54.20;;;;;;5085477;28;19912;-80
2021/06/03 02:46:27;;;;;;;;;;;19.20;54.30;;;;;;5087939;28;19920;-80
2021/06/03 02:48:53;;;;;;;;;;;19.20;54.30;;;;;;5087837;28;19920;-80
2021/06/03 02:51:19;;;;;;;;;;;19.20;54.30;;;;;;5086432;28;19917;-80
2021/06/03 02:53:46;;;;;;;;;;;19.20;54.30;;;;;;5081409;28;19912;-80
2021/06/03 02:56:12;;;;;;;;;;;19.20;54.40;;;;;;5083027;28;19912;-80
2021/06/03 02:58:37;;;;;;;;;;;19.20;54.50;;;;;;5082456;28;19912;-80
2021/06/03 03:01:04;;;;;;;;;;;19.10;54.50;;;;;;5084231;28;19916;-80
2021/06/03 03:03:30;;;;;;;;;;;19.10;54.60;;;;;;5082868;28;19912;-80
2021/06/03 03:05:55;;;;;;;;;;;19.10;54.70;;;;;;5082016;28;19913;-82
2021/06/03 03:08:21;;;;;;;;;;;19.00;54.60;;;;;;5083433;28;19919;-80
2021/06/03 03:10:48;;;;;;;;;;;19.00;54.60;;;;;;5082955;28;19967;-80
2021/06/03 03:13:13;;;;;;;;;;;18.90;54.60;;;;;;5083930;28;19916;-80
2021/06/03 03:15:39;;;;;;;;;;;18.90;55.10;;;;;;5083309;28;19913;-80
2021/06/03 03:18:04;;;;;;;;;;;18.80;55.50;;;;;;5082963;28;19985;-81
2021/06/03 03:20:30;;;;;;;;;;;18.70;55.60;;;;;;5083791;28;19936;-81
2021/06/03 03:22:56;;;;;;;;;;;18.60;55.80;;;;;;5083066;28;20003;-80
2021/06/03 03:25:22;;;;;;;;;;;18.60;56.00;;;;;;5076933;28;19912;-80
2021/06/03 03:27:48;;;;;;;;;;;18.50;56.00;;;;;;5093850;28;19982;-80
2021/06/03 03:30:15;;;;;;;;;;;18.50;56.00;;;;;;5080268;28;19999;-80
2021/06/03 03:32:40;;;;;;;;;;;18.50;56.10;;;;;;5084987;28;19916;-81
2021/06/03 03:35:07;;;;;;;;;;;18.50;56.10;;;;;;5083606;28;19927;-81
2021/06/03 03:37:32;;;;;;;;;;;18.50;56.10;;;;;;5082095;28;19936;-80
2021/06/03 03:39:58;;;;;;;;;;;18.50;56.00;;;;;;5083016;28;20367;-80
2021/06/03 03:42:24;;;;;;;;;;;18.60;56.10;;;;;;5083859;28;19908;-80
2021/06/03 03:44:50;;;;;;;;;;;18.50;56.00;;;;;;5083105;28;19947;-80
2021/06/03 03:47:15;;;;;;;;;;;18.50;56.10;;;;;;5084815;28;20420;-80
2021/06/03 03:49:41;;;;;;;;;;;18.60;56.30;;;;;;5081075;28;19913;-80
2021/06/03 03:52:06;;;;;;;;;;;18.60;56.20;;;;;;5083627;28;19991;-80
2021/06/03 03:54:32;;;;;;;;;;;18.60;56.10;;;;;;5082089;28;19948;-82
2021/06/03 03:56:57;;;;;;;;;;;18.70;56.70;;;;;;5084896;28;19912;-80
2021/06/03 03:59:23;;;;;;;;;;;18.70;56.10;;;;;;5082387;28;19908;-80
2021/06/03 04:01:52;;;;;;;;;;;18.80;56.10;;;;;;5084781;28;19919;-80
2021/06/03 04:04:18;;;;;;;;;;;18.80;56.10;;;;;;5084462;28;19912;-80
2021/06/03 04:06:44;;;;;;;;;;;18.80;56.00;;;;;;5082327;28;19913;-80
2021/06/03 04:09:09;;;;;;;;;;;18.90;56.00;;;;;;5083640;28;19932;-80
2021/06/03 04:11:35;;;;;;;;;;;19.00;56.10;;;;;;5082150;28;19970;-80
2021/06/03 04:14:00;;;;;;;;;;;19.00;56.00;;;;;;5085574;28;19919;-81
2021/06/03 04:16:26;;;;;;;;;;;19.00;56.00;;;;;;5084088;28;19983;-81
2021/06/03 04:18:51;;;;;;;;;;;19.10;56.00;;;;;;5083628;28;19919;-81
2021/06/03 04:21:16;;;;;;;;;;;19.10;56.00;;;;;;5084680;28;19913;-80
2021/06/03 04:23:42;;;;;;;;;;;19.20;56.00;;;;;;5085498;28;19920;-80
2021/06/03 04:26:07;;;;;;;;;;;19.30;56.00;;;;;;5074311;28;19947;-80
2021/06/03 04:28:33;;;;;;;;;;;19.30;55.90;;;;;;5071494;28;19972;-81
2021/06/03 04:30:59;;;;;;;;;;;19.40;55.90;;;;;;5079963;28;19923;-82
2021/06/03 04:33:24;;;;;;;;;;;19.60;55.80;;;;;;5088795;28;19909;-81
2021/06/03 04:35:51;;;;;;;;;;;19.70;55.70;;;;;;5087129;28;19923;-81
2021/06/03 04:38:16;;;;;;;;;;;19.80;55.50;;;;;;5083739;28;19919;-80
2021/06/03 04:40:42;;;;;;;;;;;20.00;55.50;;;;;;5083142;28;20380;-80
2021/06/03 04:43:07;;;;;;;;;;;20.20;55.30;;;;;;5083197;28;19912;-80
2021/06/03 04:45:35;;;;;;;;;;;20.40;55.20;;;;;;5082698;28;19988;-80
2021/06/03 04:48:01;;;;;;;;;;;20.50;55.10;;;;;;5083186;28;19909;-80
2021/06/03 04:50:27;;;;;;;;;;;20.70;55.00;;;;;;5081539;28;19988;-80
2021/06/03 04:52:52;;;;;;;;;;;20.90;54.90;;;;;;5085147;28;19967;-81
2021/06/03 04:55:19;;;;;;;;;;;21.10;54.90;;;;;;5084949;28;20022;-80
2021/06/03 04:57:45;;;;;;;;;;;21.20;54.70;;;;;;5083814;28;20171;-80
2021/06/03 05:00:15;;;;;;;;;;;21.40;54.60;;;;;;5084374;28;19916;-80
2021/06/03 05:02:41;;;;;;;;;;;21.50;54.50;;;;;;5086914;28;19916;-81
2021/06/03 05:05:06;;;;;;;;;;;21.70;54.50;;;;;;5087116;28;19934;-80
2021/06/03 05:07:32;;;;;;;;;;;21.80;54.40;;;;;;5087064;28;19939;-80
2021/06/03 05:09:57;;;;;;;;;;;21.90;54.40;;;;;;5087969;28;19940;-80
2021/06/03 05:12:23;;;;;;;;;;;22.00;54.30;;;;;;5084909;28;20331;-80
2021/06/03 05:14:48;;;;;;;;;;;22.20;54.40;;;;;;5086412;28;19919;-80
2021/06/03 05:17:14;;;;;;;;;;;22.30;54.40;;;;;;5086775;28;20415;-80
2021/06/03 05:19:40;;;;;;;;;;;22.60;54.30;;;;;;5085209;28;19943;-80
2021/06/03 05:22:05;;;;;;;;;;;22.90;54.10;;;;;;5083936;28;19934;-80
2021/06/03 05:24:31;;;;;;;;;;;23.20;53.90;;;;;;5084774;28;20360;-80
2021/06/03 05:26:58;;;;;;;;;;;23.30;53.80;;;;;;5076698;28;19962;-80
2021/06/03 05:29:24;;;;;;;;;;;23.40;54.20;;;;;;5082890;28;19972;-81
2021/06/03 05:31:49;;;;;;;;;;;23.50;54.30;;;;;;5085599;28;19928;-81
2021/06/03 05:34:15;;;;;;;;;;;23.50;54.40;;;;;;5087964;28;19909;-80
2021/06/03 05:36:41;;;;;;;;;;;23.40;54.60;;;;;;5087362;28;20398;-81
2021/06/03 05:39:07;;;;;;;;;;;23.30;55.40;;;;;;5087332;28;19932;-81
2021/06/03 05:41:33;;;;;;;;;;;23.20;55.70;;;;;;5084667;28;19912;-82
2021/06/03 05:44:00;;;;;;;;;;;23.20;55.90;;;;;;5083557;28;19913;-82
2021/06/03 05:46:25;;;;;;;;;;;23.20;56.00;;;;;;5083210;28;19913;-82
2021/06/03 05:48:51;;;;;;;;;;;23.10;55.90;;;;;;5083955;28;20003;-82
2021/06/03 05:51:17;;;;;;;;;;;23.10;55.90;;;;;;5082701;28;19916;-82
2021/06/03 05:53:42;;;;;;;;;;;23.10;56.00;;;;;;5080846;28;19919;-82
2021/06/03 05:56:08;;;;;;;;;;;23.10;56.00;;;;;;5082676;28;20297;-82
2021/06/03 05:58:34;;;;;;;;;;;23.00;56.00;;;;;;5081663;28;19916;-82
2021/06/03 06:00:59;;;;;;;;;;;23.00;56.10;;;;;;5083048;28;19909;-82
2021/06/03 06:03:34;;;;;;;;;;;22.90;56.20;;;;;;5082709;28;19919;-82
2021/06/03 06:08:43;;;;;;;;;;;22.80;56.40;;;;;;5075357;28;19935;-83
2021/06/03 06:11:09;;;;;;;;;;;22.80;56.50;;;;;;5082247;28;19920;-82
2021/06/03 06:13:35;;;;;;;;;;;22.70;56.60;;;;;;5077669;28;19919;-82
2021/06/03 06:16:00;;;;;;;;;;;22.70;56.70;;;;;;5079397;28;19920;-82
2021/06/03 06:18:26;;;;;;;;;;;22.70;56.80;;;;;;5079889;28;19920;-82
2021/06/03 06:20:51;;;;;;;;;;;22.70;57.00;;;;;;5079795;28;19913;-82
2021/06/03 06:23:18;;;;;;;;;;;22.60;57.10;;;;;;5078294;28;19920;-82
2021/06/03 06:25:44;;;;;;;;;;;22.60;57.20;;;;;;5077444;28;19952;-81
2021/06/03 06:28:10;;;;;;;;;;;22.60;57.30;;;;;;5073281;28;19916;-83
2021/06/03 06:30:35;;;;;;;;;;;22.60;57.40;;;;;;5082695;28;19972;-83
2021/06/03 06:33:01;;;;;;;;;;;22.50;57.50;;;;;;5081485;28;19963;-83
2021/06/03 06:35:27;;;;;;;;;;;22.50;57.60;;;;;;5082088;28;19908;-83
2021/06/03 06:37:53;;;;;;;;;;;22.40;57.80;;;;;;5080520;28;19912;-83
2021/06/03 06:40:19;;;;;;;;;;;22.40;58.00;;;;;;5080999;28;19919;-83
2021/06/03 06:42:45;;;;;;;;;;;22.30;58.10;;;;;;5081472;28;19912;-83
2021/06/03 06:45:11;;;;;;;;;;;22.30;58.30;;;;;;5075262;28;19919;-83
2021/06/03 06:47:37;;;;;;;;;;;22.30;58.40;;;;;;5070388;28;19980;-83
2021/06/03 06:50:03;;;;;;;;;;;22.20;58.60;;;;;;5070725;28;19913;-83
2021/06/03 06:52:29;;;;;;;;;;;22.20;59.00;;;;;;5065271;28;19927;-83
2021/06/03 06:54:54;;;;;;;;;;;22.30;59.40;;;;;;5084585;28;19916;-83
2021/06/03 06:57:20;;;;;;;;;;;22.50;59.90;;;;;;5079576;28;20411;-83
2021/06/03 06:59:45;;;;;;;;;;;22.70;60.40;;;;;;5075248;28;19963;-83
2021/06/03 07:02:11;;;;;;;;;;;23.00;60.80;;;;;;5077072;28;19966;-83
2021/06/03 07:04:36;;;;;;;;;;;24.70;60.80;;;;;;5081383;28;19947;-83
2021/06/03 07:07:02;;;;;;;;;;;25.20;57.50;;;;;;5080096;28;19972;-83
2021/06/03 07:09:27;;;;;;;;;;;25.10;57.80;;;;;;5075066;28;19974;-83
2021/06/03 07:11:53;;;;;;;;;;;25.00;58.40;;;;;;5074177;28;19949;-83
2021/06/03 07:14:18;;;;;;;;;;;24.80;59.00;;;;;;5073918;28;19913;-83
2021/06/03 07:16:46;;;;;;;;;;;24.70;59.60;;;;;;5077228;28;19916;-82
2021/06/03 07:19:11;;;;;;;;;;;24.40;60.50;;;;;;5073488;28;19955;-82
2021/06/03 07:21:37;;;;;;;;;;;24.20;61.40;;;;;;5075854;28;19913;-83
2021/06/03 07:24:03;;;;;;;;;;;24.20;62.00;;;;;;5075495;28;20459;-82
2021/06/03 07:26:29;;;;;;;;;;;24.10;62.30;;;;;;5075586;28;19917;-83
2021/06/03 07:28:55;;;;;;;;;;;24.00;63.10;;;;;;5068751;28;19951;-83
2021/06/03 07:31:20;;;;;;;;;;;23.90;65.50;;;;;;5075390;28;19917;-83
2021/06/03 07:33:46;;;;;;;;;;;23.90;66.00;;;;;;5076715;28;19912;-84
2021/06/03 07:36:11;;;;;;;;;;;23.90;67.70;;;;;;5074437;28;19971;-83
2021/06/03 07:38:37;;;;;;;;;;;23.80;72.30;;;;;;5073409;28;19962;-83
2021/06/03 07:41:03;;;;;;;;;;;23.80;74.60;;;;;;5073350;28;19913;-83
2021/06/03 07:43:28;;;;;;;;;;;23.90;75.00;;;;;;5078563;28;19959;-82
2021/06/03 07:45:55;;;;;;;;;;;24.10;74.90;;;;;;5074286;28;20004;-82
2021/06/03 07:48:21;;;;;;;;;;;24.20;74.40;;;;;;5076730;28;19935;-83
2021/06/03 07:50:46;;;;;;;;;;;24.50;73.90;;;;;;5077142;28;19912;-83
2021/06/03 07:53:12;;;;;;;;;;;24.80;73.00;;;;;;5077034;28;19913;-83
2021/06/03 07:55:37;;;;;;;;;;;25.20;71.70;;;;;;5077988;28;19915;-84
2021/06/03 07:58:05;;;;;;;;;;;25.80;70.30;;;;;;5076753;28;20334;-84
2021/06/03 08:00:31;;;;;;;;;;;27.00;66.80;;;;;;5077355;28;19947;-84
2021/06/03 08:02:57;;;;;;;;;;;27.40;63.50;;;;;;5077300;28;20388;-83
2021/06/03 08:05:24;;;;;;;;;;;27.50;63.20;;;;;;5078759;28;19912;-84
2021/06/03 08:07:50;;;;;;;;;;;27.50;63.20;;;;;;5078808;28;20362;-84
2021/06/03 08:10:18;;;;;;;;;;;27.70;62.70;;;;;;5079142;28;19915;-84
2021/06/03 08:12:44;;;;;;;;;;;27.90;61.90;;;;;;5079071;28;19909;-84
2021/06/03 08:15:10;;;;;;;;;;;27.90;61.60;;;;;;5078178;28;19912;-83
2021/06/03 08:17:36;;;;;;;;;;;27.80;61.30;;;;;;5078314;28;19971;-83
2021/06/03 08:20:03;;;;;;;;;;;27.70;61.40;;;;;;5077573;28;19912;-83
2021/06/03 08:22:28;;;;;;;;;;;27.40;61.70;;;;;;5077751;28;19970;-84
2021/06/03 08:24:54;;;;;;;;;;;27.20;62.40;;;;;;5076368;28;19909;-85
2021/06/03 08:27:19;;;;;;;;;;;26.90;63.30;;;;;;5065617;28;19956;-83
2021/06/03 08:29:45;;;;;;;;;;;26.60;64.20;;;;;;5058857;28;19909;-83
2021/06/03 08:32:11;;;;;;;;;;;26.40;65.10;;;;;;5076298;28;19913;-83
2021/06/03 08:34:36;;;;;;;;;;;26.20;65.80;;;;;;5076166;28;19919;-83
2021/06/03 08:37:02;;;;;;;;;;;25.90;66.60;;;;;;5079500;28;19952;-83
2021/06/03 08:39:27;;;;;;;;;;;25.70;67.60;;;;;;5079444;28;19916;-83
2021/06/03 08:41:54;;;;;;;;;;;25.50;68.30;;;;;;5080489;28;19913;-83
2021/06/03 08:44:20;;;;;;;;;;;25.30;69.20;;;;;;5079465;28;19913;-83
2021/06/03 08:46:46;;;;;;;;;;;25.10;70.30;;;;;;5080251;28;19920;-83
2021/06/03 08:49:11;;;;;;;;;;;24.90;71.70;;;;;;5079181;28;20322;-83
2021/06/03 08:51:37;;;;;;;;;;;24.70;72.60;;;;;;5080101;28;20377;-83
2021/06/03 08:54:03;;;;;;;;;;;24.70;73.40;;;;;;5079803;28;19912;-83
2021/06/03 08:56:28;;;;;;;;;;;24.90;73.90;;;;;;5080953;28;19995;-84
2021/06/03 08:58:55;;;;;;;;;;;25.10;73.60;;;;;;5080028;28;20021;-83
2021/06/03 09:01:21;;;;;;;;;;;25.40;73.00;;;;;;5081069;28;20005;-83
2021/06/03 09:03:47;;;;;;;;;;;25.70;72.30;;;;;;5080793;28;19914;-84
2021/06/03 09:06:15;;;;;;;;;;;25.80;71.60;;;;;;5082374;28;19927;-83
2021/06/03 09:08:42;;;;;;;;;;;26.00;71.10;;;;;;5081204;28;19913;-84
2021/06/03 09:11:14;;;;;;;;;;;26.10;70.70;;;;;;5082415;28;21352;-84
2021/06/03 09:13:43;;;;;;;;;;;26.10;70.30;;;;;;5082936;28;19916;-84
2021/06/03 09:16:09;;;;;;;;;;;26.20;70.00;;;;;;5083214;28;19912;-84
2021/06/03 09:18:38;;;;;;;;;;;26.40;69.60;;;;;;5084005;28;19909;-84
2021/06/03 09:21:10;;;;;;;;;;;26.60;68.90;;;;;;5080172;28;19912;-84
2021/06/03 09:23:36;;;;;;;;;;;26.80;68.00;;;;;;5079209;28;20415;-84
2021/06/03 09:26:06;;;;;;;;;;;27.00;67.20;;;;;;5072327;28;19913;-84
2021/06/03 09:28:32;;;;;;;;;;;27.10;66.70;;;;;;5073590;28;19912;-84
2021/06/03 09:30:58;;;;;;;;;;;27.10;66.30;;;;;;5080691;28;19913;-84
2021/06/03 09:33:42;;;;;;;;;;;27.10;66.00;;;;;;5080250;28;19912;-85
2021/06/03 09:36:09;;;;;;;;;;;27.10;66.10;;;;;;5082201;28;19966;-84
2021/06/03 09:38:35;;;;;;;;;;;27.00;66.00;;;;;;5082166;28;20373;-84
2021/06/03 09:41:01;;;;;;;;;;;26.90;66.10;;;;;;5079455;28;19958;-82
2021/06/03 09:43:27;;;;;;;;;;;26.80;66.40;;;;;;5082096;28;19924;-84
2021/06/03 09:45:57;;;;;;;;;;;26.80;66.70;;;;;;5080704;28;19908;-84
2021/06/03 09:48:37;;;;;;;;;;;26.80;66.80;;;;;;5078479;28;19912;-84
2021/06/03 09:51:21;;;;;;;;;;;26.80;66.70;;;;;;5080243;28;19917;-83
2021/06/03 09:53:50;;;;;;;;;;;26.70;66.40;;;;;;5079365;28;19916;-84
2021/06/03 09:56:23;;;;;;;;;;;26.60;66.50;;;;;;5079076;28;19982;-83
2021/06/03 09:58:48;;;;;;;;;;;26.40;66.70;;;;;;5078538;28;19956;-83
2021/06/03 10:01:14;;;;;;;;;;;26.30;67.30;;;;;;5077002;28;20300;-84
2021/06/03 10:03:49;;;;;;;;;;;26.20;67.70;;;;;;5077807;28;20007;-83
2021/06/03 10:06:15;;;;;;;;;;;26.20;67.90;;;;;;5077900;28;19913;-83
2021/06/03 10:08:47;;;;;;;;;;;26.20;68.10;;;;;;5083767;28;19923;-83
2021/06/03 10:11:33;;;;;;;;;;;26.20;68.40;;;;;;5082278;28;19913;-83
2021/06/03 10:14:09;;;;;;;;;;;26.00;68.90;;;;;;5079685;28;20605;-84
2021/06/03 10:16:34;;;;;;;;;;;25.80;69.60;;;;;;5077380;28;19916;-83
2021/06/03 10:19:20;;;;;;;;;;;25.50;72.30;;;;;;5075112;28;19919;-84
2021/06/03 10:22:05;;;;;;;;;;;25.30;74.40;;;;;;5076505;28;19970;-83
2021/06/03 10:24:47;;;;;;;;;;;25.30;75.90;;;;;;5076235;28;19919;-83
2021/06/03 10:27:13;;;;;;;;;;;25.50;76.20;;;;;;5064499;28;19908;-84
2021/06/03 10:29:41;;;;;;;;;;;25.90;75.60;;;;;;5067414;28;19935;-83
2021/06/03 10:32:07;;;;;;;;;;;26.20;74.80;;;;;;5076930;28;19912;-84
2021/06/03 10:34:33;;;;;;;;;;;26.40;74.20;;;;;;5076415;28;19912;-84
2021/06/03 10:36:58;;;;;;;;;;;26.50;74.20;;;;;;5077257;28;19909;-84
2021/06/03 10:39:25;;;;;;;;;;;26.70;77.90;;;;;;5076449;28;19999;-84
2021/06/03 10:41:50;;;;;;;;;;;26.80;78.90;;;;;;5077009;28;19957;-84
2021/06/03 10:44:16;;;;;;;;;;;27.10;79.10;;;;;;5076669;28;20377;-84
2021/06/03 10:46:44;;;;;;;;;;;27.20;78.70;;;;;;5076855;28;19912;-84
2021/06/03 10:49:11;;;;;;;;;;;27.30;78.20;;;;;;5075758;28;19917;-84
2021/06/03 10:51:38;;;;;;;;;;;27.40;78.40;;;;;;5076682;28;19917;-84
2021/06/03 10:54:04;;;;;;;;;;;27.30;78.70;;;;;;5075140;28;19995;-84
2021/06/03 10:56:29;;;;;;;;;;;27.40;78.90;;;;;;5076506;28;19954;-84
2021/06/03 10:58:55;;;;;;;;;;;28.00;78.70;;;;;;5076798;28;19934;-84
2021/06/03 11:01:21;;;;;;;;;;;29.60;75.70;;;;;;5075930;28;19938;-82
2021/06/03 11:03:53;;;;;;;;;;;31.60;70.20;;;;;;5076073;28;19931;-82
2021/06/03 11:06:20;;;;;;;;;;;32.40;66.30;;;;;;5077251;28;20292;-82
2021/06/03 11:08:46;;;;;;;;;;;33.50;63.10;;;;;;5076611;28;19957;-83
2021/06/03 11:11:12;;;;;;;;;;;34.20;59.60;;;;;;5077448;28;20300;-82
2021/06/03 11:13:40;;;;;;;;;;;34.90;58.40;;;;;;5077870;28;19912;-83
2021/06/03 11:16:05;;;;;;;;;;;36.40;56.20;;;;;;5077430;28;19916;-83
2021/06/03 11:18:43;;;;;;;;;;;37.60;54.20;;;;;;5078665;28;19966;-83
2021/06/03 11:21:09;;;;;;;;;;;37.80;51.40;;;;;;5081844;28;20292;-83
2021/06/03 11:23:35;;;;;;;;;;;37.50;50.90;;;;;;5080024;28;19912;-83
2021/06/03 11:26:01;;;;;;;;;;;37.30;50.20;;;;;;5074248;28;19961;-82
2021/06/03 11:28:27;;;;;;;;;;;37.30;48.90;;;;;;5071585;28;20308;-82
2021/06/03 11:30:53;;;;;;;;;;;36.50;48.20;;;;;;5077868;28;19916;-82
2021/06/03 11:33:18;;;;;;;;;;;36.80;48.80;;;;;;5078884;28;19987;-83
2021/06/03 11:35:44;;;;;;;;;;;37.40;48.20;;;;;;5077506;28;19959;-83
2021/06/03 11:38:09;;;;;;;;;;;38.00;47.20;;;;;;5078939;28;19920;-83
2021/06/03 11:40:41;;;;;;;;;;;37.70;47.00;;;;;;5078922;28;20289;-83
2021/06/03 11:43:08;;;;;;;;;;;37.00;47.30;;;;;;5078459;28;19912;-83
2021/06/03 11:45:36;;;;;;;;;;;37.00;47.50;;;;;;5077835;28;19958;-83
2021/06/03 11:48:02;;;;;;;;;;;37.00;47.00;;;;;;5077945;28;20287;-84
2021/06/03 11:50:27;;;;;;;;;;;35.80;47.30;;;;;;5076494;28;19913;-84
2021/06/03 11:53:14;;;;;;;;;;;34.50;48.50;;;;;;5077419;28;19912;-84
2021/06/03 11:55:38;;;;;;;;;;;33.20;49.60;;;;;;5075951;28;19913;-84
2021/06/03 11:58:09;;;;;;;;;;;31.90;51.20;;;;;;5075165;28;20399;-84
2021/06/03 12:00:53;;;;;;;;;;;31.10;52.20;;;;;;5076384;28;19919;-84
2021/06/03 12:03:37;;;;;;;;;;;30.40;53.80;;;;;;5076008;28;19915;-84
2021/06/03 12:06:05;;;;;;;;;;;30.40;54.20;;;;;;5076890;28;20384;-84
2021/06/03 12:08:32;;;;;;;;;;;30.30;54.90;;;;;;5075301;28;19995;-84
2021/06/03 12:10:57;;;;;;;;;;;30.50;55.60;;;;;;5078713;28;19916;-84
2021/06/03 12:13:23;;;;;;;;;;;30.30;56.30;;;;;;5081449;28;20315;-84
2021/06/03 12:15:48;;;;;;;;;;;30.10;56.80;;;;;;5081045;28;20400;-84
2021/06/03 12:18:14;;;;;;;;;;;29.80;57.20;;;;;;5081293;28;19920;-84
2021/06/03 12:20:40;;;;;;;;;;;29.50;57.60;;;;;;5079948;28;19962;-84
2021/06/03 12:23:06;;;;;;;;;;;29.20;58.20;;;;;;5081165;28;19916;-84
2021/06/03 12:25:33;;;;;;;;;;;28.80;59.30;;;;;;5075627;28;19909;-84
2021/06/03 12:27:58;;;;;;;;;;;28.20;60.50;;;;;;5088767;28;19986;-84
2021/06/03 12:30:28;;;;;;;;;;;27.60;62.50;;;;;;5080707;28;19995;-84
2021/06/03 12:32:59;;;;;;;;;;;27.10;65.70;;;;;;5080136;28;19912;-84
2021/06/03 12:35:44;;;;;;;;;;;26.70;68.60;;;;;;5081531;28;19908;-84
2021/06/03 12:38:11;;;;;;;;;;;26.30;72.60;;;;;;5081438;28;19912;-84
2021/06/03 12:40:37;;;;;;;;;;;26.00;76.30;;;;;;5080642;28;19909;-84
2021/06/03 12:43:05;;;;;;;;;;;25.80;79.50;;;;;;5082251;28;19912;-84
2021/06/03 12:45:32;;;;;;;;;;;25.60;82.90;;;;;;5081741;28;20595;-84
2021/06/03 12:47:57;;;;;;;;;;;25.50;86.30;;;;;;5080516;28;19961;-84
2021/06/03 12:50:23;;;;;;;;;;;25.30;90.70;;;;;;5082290;28;20002;-84
2021/06/03 12:52:48;;;;;;;;;;;25.30;93.10;;;;;;5081591;28;19923;-84
2021/06/03 12:55:16;;;;;;;;;;;25.30;94.70;;;;;;5080785;28;19909;-84
2021/06/03 12:57:41;;;;;;;;;;;25.60;94.70;;;;;;5083661;28;19913;-84
2021/06/03 13:00:11;;;;;;;;;;;26.00;94.40;;;;;;5086742;28;19919;-84
2021/06/03 13:02:37;;;;;;;;;;;26.80;93.50;;;;;;5084494;28;19916;-84
2021/06/03 13:05:04;;;;;;;;;;;28.30;91.00;;;;;;5081736;28;20026;-84
2021/06/03 13:07:33;;;;;;;;;;;29.70;85.80;;;;;;5080997;28;20351;-84
2021/06/03 13:10:05;;;;;;;;;;;30.60;80.20;;;;;;5080584;28;19959;-84
2021/06/03 13:12:31;;;;;;;;;;;30.90;77.50;;;;;;5081158;28;20137;-84
2021/06/03 13:14:57;;;;;;;;;;;30.90;75.30;;;;;;5079868;28;19996;-84
2021/06/03 13:17:28;;;;;;;;;;;30.70;73.40;;;;;;5078411;28;19923;-84
2021/06/03 13:19:54;;;;;;;;;;;30.50;73.00;;;;;;5078619;28;19912;-84
2021/06/03 13:22:20;;;;;;;;;;;30.60;72.40;;;;;;5078913;28;19965;-84
2021/06/03 13:24:47;;;;;;;;;;;30.90;71.00;;;;;;5077481;28;19913;-84
2021/06/03 13:27:15;;;;;;;;;;;31.60;69.20;;;;;;5066617;28;20293;-84
2021/06/03 13:29:42;;;;;;;;;;;32.30;66.90;;;;;;5061595;28;19973;-84
2021/06/03 13:32:08;;;;;;;;;;;32.70;63.80;;;;;;5080082;28;20336;-82
2021/06/03 13:34:38;;;;;;;;;;;33.00;62.20;;;;;;5064159;28;19916;-85
2021/06/03 13:37:04;;;;;;;;;;;33.20;59.90;;;;;;5075746;28;19951;-83
2021/06/03 13:39:37;;;;;;;;;;;33.30;59.50;;;;;;5078679;28;20361;-84
2021/06/03 13:42:09;;;;;;;;;;;33.10;59.20;;;;;;5079209;28;19959;-84
2021/06/03 13:44:52;;;;;;;;;;;32.60;58.40;;;;;;5067238;28;19917;-84
2021/06/03 13:47:33;;;;;;;;;;;32.10;58.50;;;;;;5068379;28;20356;-83
2021/06/03 13:50:16;;;;;;;;;;;31.70;58.80;;;;;;5077401;28;19912;-84
2021/06/03 13:52:46;;;;;;;;;;;31.50;58.80;;;;;;5077173;28;19913;-84
2021/06/03 13:55:15;;;;;;;;;;;31.00;58.70;;;;;;5076336;28;19952;-84
2021/06/03 13:57:42;;;;;;;;;;;30.80;59.20;;;;;;5070077;28;19913;-84
2021/06/03 14:00:08;;;;;;;;;;;30.70;59.20;;;;;;5073540;28;19924;-84
2021/06/03 14:02:33;;;;;;;;;;;30.60;59.40;;;;;;5077898;28;19909;-84
2021/06/03 14:05:08;;;;;;;;;;;30.30;59.60;;;;;;5078622;28;19917;-83
2021/06/03 14:07:33;;;;;;;;;;;30.10;59.70;;;;;;5075331;28;19990;-83
2021/06/03 14:10:06;;;;;;;;;;;29.90;59.80;;;;;;5074511;28;19920;-84
2021/06/03 14:12:41;;;;;;;;;;;29.70;60.00;;;;;;5078307;28;19970;-83
2021/06/03 14:15:08;;;;;;;;;;;29.50;60.20;;;;;;5061728;28;19927;-83
2021/06/03 14:17:34;;;;;;;;;;;29.30;60.40;;;;;;5074615;28;20348;-84
2021/06/03 14:20:02;;;;;;;;;;;29.20;60.60;;;;;;5069121;28;19983;-82
2021/06/03 14:22:29;;;;;;;;;;;29.10;60.90;;;;;;5070865;28;19913;-83
2021/06/03 14:24:57;;;;;;;;;;;29.00;60.80;;;;;;5073922;28;19917;-83
2021/06/03 14:27:26;;;;;;;;;;;29.00;60.90;;;;;;5066847;28;19916;-84
2021/06/03 14:30:07;;;;;;;;;;;28.80;60.90;;;;;;5074480;28;20349;-83
2021/06/03 14:32:35;;;;;;;;;;;28.70;61.10;;;;;;5074790;28;19921;-83